This is the latest recevied weather packets stored in our database for station/object KI4BSX. If no packets are shown the sender has not sent any weather packets the latest 1 day(s).
| Time | Temp. | Humidity | Pressure | Rain* | Wind** | Luminosity | Snow |
|---|---|---|---|---|---|---|---|
| 1777990771 | 18.33° C | 79% | 1019.6 hPa | 0 mm | 0 m/s | - | - |
| 1777990468 | 18.33° C | 80% | 1019.6 hPa | 0 mm | 0.89 m/s, 311° | - | - |
| 1777990164 | 17.78° C | 81% | 1019.5 hPa | 0 mm | 0.89 m/s, 300° | - | - |
| 1777989856 | 17.78° C | 82% | 1019.3 hPa | 0 mm | 0.89 m/s, 318° | - | - |
| 1777989553 | 17.22° C | 83% | 1019.4 hPa | 0 mm | 0 m/s | - | - |
| 1777989249 | 17.78° C | 85% | 1019.5 hPa | 0 mm | 0.89 m/s, 324° | - | - |
| 1777988946 | 17.22° C | 85% | 1019.2 hPa | 0 mm | 0.89 m/s, 306° | - | - |
| 1777988642 | 17.22° C | 87% | 1019.3 hPa | 0 mm | 0.45 m/s, 270° | - | - |
| 1777988338 | 17.22° C | 88% | 1019.2 hPa | 0 mm | 0.89 m/s, 271° | - | - |
| 1777988030 | 17.22° C | 89% | 1019.1 hPa | 0 mm | 0.89 m/s, 271° | - | - |
| 1777987725 | 17.22° C | 90% | 1018.9 hPa | 0 mm | 0 m/s | - | - |
| 1777987423 | 16.67° C | 90% | 1019.1 hPa | 0 mm | 0 m/s | - | - |
| 1777987120 | 16.67° C | 92% | 1018.8 hPa | 0 mm | 0.45 m/s, 324° | - | - |
| 1777986817 | 16.11° C | 92% | 1019 hPa | 0 mm | 0.45 m/s, 24° | - | - |
| 1777986515 | 16.11° C | 93% | 1018.8 hPa | 0 mm | 0 m/s | - | - |
| 1777986213 | 16.11° C | 94% | 1018.9 hPa | 0 mm | 0 m/s | - | - |
| 1777985910 | 15.56° C | 94% | 1018.9 hPa | 0 mm | 0.45 m/s, 322° | - | - |
| 1777985607 | 15.56° C | 95% | 1018.9 hPa | 0 mm | 0.45 m/s, 331° | - | - |
| 1777985303 | 15° C | 95% | 1018.9 hPa | 0 mm | 0 m/s | - | - |
| 1777984995 | 13.89° C | 96% | 1018.9 hPa | 0 mm | 0 m/s | - | - |
| 1777984690 | 12.78° C | 96% | 1018.8 hPa | 0 mm | 0 m/s | - | - |
| 1777984388 | 11.67° C | 96% | 1018.8 hPa | 0 mm | 0 m/s | - | - |
| 1777984083 | 10.56° C | 95% | 1018.8 hPa | 0 mm | 0 m/s | - | - |
| 1777983781 | 10° C | 95% | 1019 hPa | 0 mm | 0 m/s | - | - |
| 1777983477 | 9.44° C | 95% | 1018.9 hPa | 0 mm | 0 m/s | - | - |
* Rain latest hour (hover to see other rain measurements)
** Current wind speed in m/s (hover to see current wind gust speed)